This is the latest recevied weather packets stored in our database for station/object DC4XK-10. If no packets are shown the sender has not sent any weather packets the latest 10 day(s).
| Time | Temp. | Humidity | Pressure | Rain* | Wind** | Luminosity | Snow |
|---|---|---|---|---|---|---|---|
| 1777546131 | 17.22° C | 36% | 1030.7 hPa | 0 mm | 0.89 m/s, 286° | - | - |
| 1777545530 | 16.67° C | 37% | 1030.9 hPa | 0 mm | 1.79 m/s, 215° | - | - |
| 1777544931 | 17.22° C | 38% | 1031 hPa | 0 mm | 0.45 m/s, 189° | - | - |
| 1777544330 | 17.22° C | 37% | 1031 hPa | 0 mm | 0.45 m/s, 55° | - | - |
| 1777543731 | 17.78° C | 36% | 1031.1 hPa | 0 mm | 0 m/s | - | - |
| 1777543132 | 16.67° C | 37% | 1030.9 hPa | 0 mm | 0.45 m/s, 196° | - | - |
| 1777542531 | 16.11° C | 41% | 1031.2 hPa | 0 mm | 1.79 m/s, 323° | - | - |
| 1777541931 | 16.11° C | 41% | 1031.2 hPa | 0 mm | 1.79 m/s, 323° | - | - |
| 1777541333 | 16.11° C | 41% | 1031.2 hPa | 0 mm | 1.79 m/s, 323° | - | - |
| 1777540731 | 15.56° C | 43% | 1031.3 hPa | 0 mm | 1.34 m/s, 323° | - | - |
| 1777540131 | 16.11° C | 42% | 1031.4 hPa | 0 mm | 0.45 m/s, 328° | - | - |
| 1777539534 | 15° C | 45% | 1031.5 hPa | 0 mm | 1.34 m/s, 301° | - | - |
| 1777538931 | 15° C | 45% | 1031.4 hPa | 0 mm | 0.89 m/s, 302° | - | - |
| 1777538331 | 15.56° C | 43% | 1031.4 hPa | 0 mm | 0.89 m/s, 251° | - | - |
| 1777537731 | 14.44° C | 48% | 1031.4 hPa | 0 mm | 0 m/s | - | - |
| 1777537131 | 13.89° C | 50% | 1031.3 hPa | 0 mm | 0.89 m/s, 292° | - | - |
| 1777536531 | 13.89° C | 52% | 1031.3 hPa | 0 mm | 0 m/s | - | - |
| 1777535931 | 13.33° C | 56% | 1031.3 hPa | 0 mm | 0 m/s | - | - |
| 1777535331 | 12.78° C | 57% | 1031.5 hPa | 0 mm | 0 m/s | - | - |
| 1777534731 | 12.78° C | 60% | 1031.4 hPa | 0 mm | 0 m/s | - | - |
| 1777534131 | 12.22° C | 60% | 1031.4 hPa | 0 mm | 0 m/s | - | - |
| 1777533530 | 11.67° C | 59% | 1031.6 hPa | 0 mm | 0 m/s | - | - |
| 1777532931 | 11.11° C | 64% | 1031.4 hPa | 0 mm | 0 m/s | - | - |
| 1777532331 | 10.56° C | 65% | 1031.5 hPa | 0 mm | 0 m/s | - | - |
| 1777531730 | 10° C | 68% | 1031.5 hPa | 0 mm | 0 m/s | - | - |
* Rain latest hour (hover to see other rain measurements)
** Current wind speed in m/s (hover to see current wind gust speed)